Time;durP1;ratioP1;P1;durP2;ratioP2;P2;SDS_P1;SDS_P2;PMS_P1;PMS_P2;Temp;Humidity;BMP_temperature;BMP_pressure;BME280_temperature;BME280_humidity;BME280_pressure;Samples;Min_cycle;Max_cycle;Signal;HPM_P1;HPM_P2
2022/03/25 00:00:57;;;;;;;10.38;5.47;;;2.00;99.90;;;;;;4955919;29;20315;-85
2022/03/25 00:03:25;;;;;;;10.63;4.70;;;2.10;99.90;;;;;;4940369;29;20208;-85
2022/03/25 00:05:53;;;;;;;11.10;5.07;;;2.00;99.90;;;;;;4957592;29;20189;-85
2022/03/25 00:08:21;;;;;;;9.73;5.13;;;1.90;99.90;;;;;;4956480;29;20177;-85
2022/03/25 00:10:48;;;;;;;10.43;4.53;;;1.90;99.90;;;;;;4957478;28;20239;-85
2022/03/25 00:13:16;;;;;;;7.53;4.43;;;1.90;99.90;;;;;;4940320;29;20192;-85
2022/03/25 00:15:44;;;;;;;8.93;4.22;;;2.00;99.90;;;;;;4956125;29;20177;-85
2022/03/25 00:18:13;;;;;;;8.90;4.43;;;1.90;99.90;;;;;;4940347;29;20196;-85
2022/03/25 00:20:40;;;;;;;13.93;4.35;;;1.90;99.90;;;;;;4957254;29;20187;-85
2022/03/25 00:23:09;;;;;;;9.40;4.28;;;2.00;99.90;;;;;;4956085;29;20177;-85
2022/03/25 00:25:36;;;;;;;10.07;5.05;;;1.90;99.90;;;;;;4940143;29;20216;-85
2022/03/25 00:28:04;;;;;;;8.13;4.80;;;2.00;99.90;;;;;;4939999;29;20559;-85
2022/03/25 00:30:32;;;;;;;9.90;4.40;;;1.90;99.90;;;;;;4955870;29;20562;-86
2022/03/25 00:33:00;;;;;;;8.02;4.80;;;1.90;99.90;;;;;;4955910;29;20236;-85
2022/03/25 00:35:28;;;;;;;7.28;4.15;;;1.90;99.90;;;;;;4939837;29;20196;-85
2022/03/25 00:37:55;;;;;;;9.45;5.00;;;1.90;99.90;;;;;;4955704;29;20553;-85
2022/03/25 00:40:23;;;;;;;8.20;4.10;;;1.80;99.90;;;;;;4956928;29;20200;-85
2022/03/25 00:42:51;;;;;;;9.68;4.40;;;1.80;99.90;;;;;;4955980;29;20197;-85
2022/03/25 00:45:19;;;;;;;11.35;5.03;;;1.80;99.90;;;;;;4955592;29;20260;-85
2022/03/25 00:47:47;;;;;;;9.02;4.38;;;1.80;99.90;;;;;;4956691;29;20520;-85
2022/03/25 00:50:16;;;;;;;10.02;5.03;;;1.80;99.90;;;;;;4939757;29;20622;-85
2022/03/25 00:52:46;;;;;;;11.35;5.10;;;1.80;99.90;;;;;;4940014;29;20276;-85
2022/03/25 00:55:14;;;;;;;8.05;4.55;;;1.80;99.90;;;;;;4955456;29;20558;-85
2022/03/25 00:57:42;;;;;;;11.07;4.90;;;1.80;99.90;;;;;;4955493;29;20189;-85
2022/03/25 01:00:11;;;;;;;10.18;4.63;;;1.80;99.90;;;;;;4955252;29;20312;-85
2022/03/25 01:02:39;;;;;;;11.73;5.75;;;1.80;99.90;;;;;;4954945;28;20755;-85
2022/03/25 01:05:07;;;;;;;8.70;4.88;;;1.70;99.90;;;;;;4939341;29;20208;-85
2022/03/25 01:07:35;;;;;;;8.10;4.78;;;1.70;99.90;;;;;;4956353;29;20181;-85
2022/03/25 01:10:03;;;;;;;9.88;5.22;;;1.70;99.90;;;;;;4955349;29;20200;-85
2022/03/25 01:12:31;;;;;;;9.88;4.80;;;1.70;99.90;;;;;;4955000;29;20193;-83
2022/03/25 01:14:59;;;;;;;9.27;5.13;;;1.70;99.90;;;;;;4954988;29;20185;-85
2022/03/25 01:17:27;;;;;;;10.52;5.05;;;1.70;99.90;;;;;;4939056;29;20204;-85
2022/03/25 01:19:55;;;;;;;8.95;4.80;;;1.70;99.90;;;;;;4939142;29;20634;-84
2022/03/25 01:22:22;;;;;;;9.25;4.82;;;1.70;99.90;;;;;;4956129;29;20264;-85
2022/03/25 01:24:50;;;;;;;12.02;5.13;;;1.70;99.90;;;;;;4954749;29;20219;-85
2022/03/25 01:27:18;;;;;;;10.27;5.22;;;1.60;99.90;;;;;;4954799;29;20668;-85
2022/03/25 01:29:46;;;;;;;10.68;5.00;;;1.60;99.90;;;;;;4955855;29;20706;-85
2022/03/25 01:32:16;;;;;;;11.50;5.30;;;1.70;99.90;;;;;;4954711;29;20293;-86
2022/03/25 01:34:45;;;;;;;10.23;5.05;;;1.70;99.90;;;;;;4954648;29;20718;-85
2022/03/25 01:37:13;;;;;;;11.30;5.70;;;1.60;99.90;;;;;;4954563;29;20196;-85
2022/03/25 01:39:41;;;;;;;11.23;5.05;;;1.60;99.90;;;;;;4938745;29;20207;-85
2022/03/25 01:42:10;;;;;;;9.75;4.97;;;1.60;99.90;;;;;;4948727;29;20189;-86
2022/03/25 01:44:37;;;;;;;10.45;5.25;;;1.60;99.90;;;;;;4945449;29;20205;-86
2022/03/25 01:47:08;;;;;;;9.93;4.95;;;1.60;99.90;;;;;;4935308;29;20193;-85
2022/03/25 01:49:36;;;;;;;13.48;5.38;;;1.60;99.90;;;;;;4936759;29;20226;-85
2022/03/25 01:52:05;;;;;;;7.82;4.15;;;1.60;99.90;;;;;;4935396;29;20188;-85
2022/03/25 01:54:34;;;;;;;12.20;5.32;;;1.60;99.90;;;;;;4951125;29;20669;-85
2022/03/25 01:57:07;;;;;;;10.77;5.38;;;1.50;99.90;;;;;;4951061;29;20182;-85
2022/03/25 01:59:35;;;;;;;10.85;5.75;;;1.40;99.90;;;;;;4951000;29;20229;-86
2022/03/25 02:02:07;;;;;;;11.35;4.82;;;1.50;99.90;;;;;;4951038;29;20213;-85
2022/03/25 02:04:36;;;;;;;9.15;5.30;;;1.50;99.90;;;;;;4950934;29;20216;-86
2022/03/25 02:07:04;;;;;;;8.45;4.47;;;1.50;99.90;;;;;;4936187;29;20208;-85
2022/03/25 02:09:32;;;;;;;12.40;5.57;;;1.50;99.90;;;;;;4935065;29;20181;-85
2022/03/25 02:12:05;;;;;;;11.68;5.82;;;1.40;99.90;;;;;;4934926;29;20189;-85
2022/03/25 02:14:33;;;;;;;9.48;5.35;;;1.50;99.90;;;;;;4934152;29;20201;-85
2022/03/25 02:17:01;;;;;;;11.95;5.80;;;1.40;99.90;;;;;;4934812;29;20201;-84
2022/03/25 02:19:30;;;;;;;10.80;5.65;;;1.40;99.90;;;;;;4919143;29;20675;-85
2022/03/25 02:21:57;;;;;;;12.10;5.88;;;1.30;99.90;;;;;;4950631;29;20185;-85
2022/03/25 02:24:29;;;;;;;14.00;5.40;;;1.40;99.90;;;;;;4919514;29;20213;-85
2022/03/25 02:26:59;;;;;;;8.20;4.90;;;1.30;99.90;;;;;;4934679;29;20196;-85
2022/03/25 02:29:26;;;;;;;9.82;4.85;;;1.20;99.90;;;;;;4934537;29;20656;-85
2022/03/25 02:31:54;;;;;;;11.23;5.05;;;1.20;99.90;;;;;;4934607;29;20659;-84
2022/03/25 02:34:22;;;;;;;10.45;5.00;;;1.10;99.90;;;;;;4950584;29;20641;-85
2022/03/25 02:36:52;;;;;;;11.27;5.20;;;1.20;99.90;;;;;;4934135;29;20840;-85
2022/03/25 02:39:20;;;;;;;11.95;5.03;;;1.20;99.90;;;;;;4950413;29;20197;-85
2022/03/25 02:41:49;;;;;;;11.60;5.32;;;1.20;99.90;;;;;;4918775;29;20249;-85
2022/03/25 02:44:18;;;;;;;14.05;6.07;;;1.20;99.90;;;;;;4948564;29;20212;-85
2022/03/25 02:46:46;;;;;;;11.32;4.95;;;1.20;99.90;;;;;;4934282;29;20914;-85
2022/03/25 02:49:14;;;;;;;9.70;5.45;;;1.10;99.90;;;;;;4934231;29;20558;-85
2022/03/25 02:51:42;;;;;;;9.68;4.45;;;1.10;99.90;;;;;;4918508;29;20217;-85
2022/03/25 02:54:09;;;;;;;10.43;5.35;;;1.00;99.90;;;;;;4934214;29;20600;-85
2022/03/25 02:56:37;;;;;;;11.80;5.28;;;1.00;99.90;;;;;;4935640;29;20182;-85
2022/03/25 02:59:05;;;;;;;13.35;5.80;;;1.00;99.90;;;;;;4933879;29;20240;-86
2022/03/25 03:01:33;;;;;;;11.38;4.93;;;0.90;99.90;;;;;;4934139;29;20252;-85
2022/03/25 03:04:01;;;;;;;10.52;5.50;;;0.90;99.90;;;;;;4933867;29;20260;-85
2022/03/25 03:06:29;;;;;;;10.35;5.75;;;0.90;99.90;;;;;;4934062;29;20193;-85
2022/03/25 03:08:56;;;;;;;9.82;5.25;;;0.90;99.90;;;;;;4934085;29;20562;-85
2022/03/25 03:11:24;;;;;;;10.68;5.55;;;0.90;99.90;;;;;;4934511;29;20209;-85
2022/03/25 03:13:52;;;;;;;9.65;5.13;;;1.00;99.90;;;;;;4934051;29;20197;-85
2022/03/25 03:16:20;;;;;;;11.98;5.25;;;1.00;99.90;;;;;;4934313;29;20193;-85
2022/03/25 03:18:48;;;;;;;10.57;5.40;;;0.90;99.90;;;;;;4934202;29;20211;-85
2022/03/25 03:21:16;;;;;;;12.10;5.88;;;0.90;99.90;;;;;;4935333;29;20186;-85
2022/03/25 03:23:45;;;;;;;11.32;5.60;;;0.90;99.90;;;;;;4934026;29;20193;-85
2022/03/25 03:26:13;;;;;;;10.43;5.70;;;0.90;99.90;;;;;;4920493;29;20747;-84
2022/03/25 03:28:40;;;;;;;10.02;5.82;;;0.90;99.90;;;;;;4937984;29;20633;-85
2022/03/25 03:31:08;;;;;;;9.88;5.43;;;0.90;99.90;;;;;;4937826;29;20707;-84
2022/03/25 03:33:36;;;;;;;9.68;5.47;;;0.90;99.90;;;;;;4938955;29;20594;-85
2022/03/25 03:36:04;;;;;;;12.20;6.10;;;0.90;99.90;;;;;;4938877;29;20260;-84
2022/03/25 03:38:32;;;;;;;10.00;5.32;;;0.80;99.90;;;;;;4937614;29;20544;-85
2022/03/25 03:41:00;;;;;;;12.43;5.47;;;0.80;99.90;;;;;;4938831;29;20186;-85
2022/03/25 03:43:27;;;;;;;12.80;6.00;;;0.80;99.90;;;;;;4937703;29;20193;-85
2022/03/25 03:45:55;;;;;;;10.65;5.53;;;0.80;99.90;;;;;;4937455;29;20224;-85
2022/03/25 03:48:23;;;;;;;13.05;6.40;;;0.80;99.90;;;;;;4921902;29;20193;-82
2022/03/25 03:50:51;;;;;;;11.80;5.72;;;0.70;99.90;;;;;;4937433;29;20186;-82
2022/03/25 03:53:19;;;;;;;13.40;6.55;;;0.70;99.90;;;;;;4937340;29;20193;-85
2022/03/25 03:55:46;;;;;;;12.75;6.03;;;0.80;99.90;;;;;;4937413;29;20209;-85
2022/03/25 03:58:14;;;;;;;13.40;6.10;;;0.80;99.90;;;;;;4936830;29;20198;-85
2022/03/25 04:00:42;;;;;;;11.88;6.15;;;0.80;99.90;;;;;;4936994;29;20255;-85
2022/03/25 04:03:12;;;;;;;13.77;6.65;;;0.90;99.90;;;;;;4938390;29;20599;-85
2022/03/25 04:05:39;;;;;;;13.43;5.97;;;0.80;99.90;;;;;;4921263;29;20233;-85
2022/03/25 04:08:08;;;;;;;13.10;6.45;;;0.90;99.90;;;;;;4937184;29;20216;-84
2022/03/25 04:10:35;;;;;;;13.32;6.03;;;0.80;99.90;;;;;;4921225;29;20197;-83
2022/03/25 04:13:04;;;;;;;13.93;6.40;;;0.90;99.90;;;;;;4936227;29;20212;-84
2022/03/25 04:15:32;;;;;;;13.25;6.38;;;1.00;99.90;;;;;;4938123;29;20269;-86
2022/03/25 04:18:00;;;;;;;10.45;6.18;;;1.00;99.90;;;;;;4937354;29;20181;-86
2022/03/25 04:20:29;;;;;;;12.27;5.80;;;0.90;99.90;;;;;;4921069;29;20200;-85
2022/03/25 04:22:57;;;;;;;10.75;5.90;;;0.90;99.90;;;;;;4936908;29;20197;-85
2022/03/25 04:25:24;;;;;;;13.52;6.40;;;1.00;99.90;;;;;;4937903;29;20288;-84
2022/03/25 04:27:54;;;;;;;15.05;6.50;;;1.00;99.90;;;;;;4936910;29;20177;-85
2022/03/25 04:30:29;;;;;;;12.15;5.88;;;1.10;99.90;;;;;;4938098;29;20173;-85
2022/03/25 04:32:58;;;;;;;13.00;6.45;;;1.00;99.90;;;;;;4936731;29;20236;-85
2022/03/25 04:35:28;;;;;;;13.43;6.25;;;1.00;99.90;;;;;;4936559;29;20193;-86
2022/03/25 04:37:57;;;;;;;13.18;6.32;;;1.00;99.90;;;;;;4920363;29;20236;-85
2022/03/25 04:40:28;;;;;;;14.88;6.68;;;1.00;99.90;;;;;;4936586;29;20208;-85
2022/03/25 04:42:58;;;;;;;14.97;8.17;;;1.10;99.90;;;;;;4935571;29;20398;-85
2022/03/25 04:45:27;;;;;;;13.18;7.10;;;1.00;99.90;;;;;;4937632;29;20281;-86
2022/03/25 04:47:55;;;;;;;14.05;7.88;;;1.10;99.90;;;;;;4936509;29;20389;-85
2022/03/25 04:50:23;;;;;;;14.77;8.32;;;1.10;99.90;;;;;;4935279;29;20909;-85
2022/03/25 04:52:51;;;;;;;14.77;8.45;;;1.10;99.90;;;;;;4935199;29;20394;-86
2022/03/25 04:55:20;;;;;;;13.82;8.55;;;1.20;99.90;;;;;;4919530;29;20416;-86
2022/03/25 04:57:48;;;;;;;14.73;8.38;;;1.20;99.90;;;;;;4935157;29;20930;-86
2022/03/25 05:00:17;;;;;;;14.60;8.85;;;1.20;99.90;;;;;;4950627;29;20409;-85
2022/03/25 05:02:45;;;;;;;15.13;8.65;;;1.20;99.90;;;;;;4929952;29;20923;-86
2022/03/25 05:05:13;;;;;;;14.73;8.45;;;1.30;99.90;;;;;;4919407;29;20905;-86
2022/03/25 05:07:43;;;;;;;15.07;8.75;;;1.30;99.90;;;;;;4934347;29;20407;-86
2022/03/25 05:10:13;;;;;;;15.82;8.73;;;1.40;99.90;;;;;;4919156;29;20402;-86
2022/03/25 05:12:42;;;;;;;15.88;9.02;;;1.30;99.90;;;;;;4934899;29;20480;-86
2022/03/25 05:15:10;;;;;;;16.35;9.13;;;1.40;99.90;;;;;;4936132;29;20398;-88
2022/03/25 05:17:48;;;;;;;16.33;8.90;;;1.40;99.90;;;;;;4934832;29;20453;-86
2022/03/25 05:20:19;;;;;;;18.27;9.10;;;1.50;99.90;;;;;;4934884;29;20398;-86
2022/03/25 05:22:48;;;;;;;15.82;8.85;;;1.50;99.90;;;;;;4935803;29;20831;-86
2022/03/25 05:25:17;;;;;;;16.42;8.95;;;1.50;99.90;;;;;;4934606;29;20470;-86
2022/03/25 05:27:57;;;;;;;15.50;8.55;;;1.50;99.90;;;;;;4918953;29;20414;-86
2022/03/25 05:30:28;;;;;;;15.65;8.10;;;1.60;99.90;;;;;;4934629;29;20402;-86
2022/03/25 05:32:56;;;;;;;15.25;8.32;;;1.60;99.90;;;;;;4936004;29;20763;-86
2022/03/25 05:35:25;;;;;;;20.58;10.48;;;1.70;99.90;;;;;;4935882;29;20397;-86
2022/03/25 05:37:53;;;;;;;13.38;7.90;;;1.70;99.90;;;;;;4934595;29;20421;-83
2022/03/25 05:40:23;;;;;;;16.42;8.80;;;2.00;99.90;;;;;;4933882;29;20500;-86
2022/03/25 05:42:51;;;;;;;15.27;8.80;;;2.00;99.90;;;;;;4934557;29;20874;-85
2022/03/25 05:45:20;;;;;;;16.48;8.50;;;2.20;99.90;;;;;;4934256;29;20911;-83
2022/03/25 05:47:49;;;;;;;13.60;8.32;;;2.30;99.90;;;;;;4935076;29;20405;-86
2022/03/25 05:50:17;;;;;;;14.10;8.27;;;2.30;99.90;;;;;;4934548;29;20422;-85
2022/03/25 05:52:46;;;;;;;16.35;8.52;;;2.20;99.90;;;;;;4935664;29;20956;-85
2022/03/25 05:55:16;;;;;;;18.08;8.82;;;2.30;99.90;;;;;;4934180;29;20955;-85
2022/03/25 05:57:45;;;;;;;15.55;8.68;;;2.40;99.90;;;;;;4935386;29;20952;-85
2022/03/25 06:00:16;;;;;;;16.67;9.23;;;2.40;99.90;;;;;;4934990;29;20493;-85
2022/03/25 06:02:44;;;;;;;13.45;7.95;;;2.40;99.90;;;;;;4933829;29;20413;-85
2022/03/25 06:05:13;;;;;;;15.98;8.73;;;2.50;99.90;;;;;;4935034;29;20410;-85
2022/03/25 06:07:43;;;;;;;15.02;9.00;;;2.60;99.90;;;;;;4935080;29;20398;-85
2022/03/25 06:10:12;;;;;;;16.53;8.50;;;2.50;99.90;;;;;;4933929;29;20394;-86
2022/03/25 06:12:40;;;;;;;16.05;9.05;;;2.60;99.90;;;;;;4922318;29;20393;-85
2022/03/25 06:15:09;;;;;;;14.77;9.20;;;2.60;99.90;;;;;;4918260;29;20433;-85
2022/03/25 06:17:47;;;;;;;18.08;9.43;;;2.70;99.90;;;;;;4934824;29;20892;-87
2022/03/25 06:20:27;;;;;;;17.30;9.60;;;2.70;99.90;;;;;;4932650;29;20398;-85
2022/03/25 06:22:56;;;;;;;15.57;8.90;;;2.80;99.90;;;;;;4932905;29;20971;-85
2022/03/25 06:25:24;;;;;;;14.83;8.60;;;3.00;99.90;;;;;;4949425;29;20967;-85
2022/03/25 06:27:55;;;;;;;16.70;9.03;;;3.00;99.90;;;;;;4934928;29;20416;-85
2022/03/25 06:30:27;;;;;;;15.83;9.07;;;3.00;99.90;;;;;;4934772;29;20398;-85
2022/03/25 06:32:55;;;;;;;14.23;9.20;;;3.10;99.90;;;;;;4933632;29;20838;-86
2022/03/25 06:35:23;;;;;;;18.25;9.68;;;3.10;99.90;;;;;;4933570;29;20433;-85
2022/03/25 06:37:55;;;;;;;17.90;9.82;;;3.10;99.90;;;;;;4949455;29;20420;-85
2022/03/25 06:40:24;;;;;;;18.97;10.73;;;3.20;99.90;;;;;;4933452;29;20485;-85
2022/03/25 06:42:57;;;;;;;21.80;11.50;;;3.20;99.90;;;;;;4933373;29;20417;-85
2022/03/25 06:45:25;;;;;;;21.27;11.82;;;3.30;99.90;;;;;;4934680;29;20409;-85
2022/03/25 06:47:54;;;;;;;21.00;11.32;;;3.30;99.90;;;;;;4933373;29;20402;-84
2022/03/25 06:50:24;;;;;;;20.13;10.85;;;3.20;99.90;;;;;;4934565;29;20398;-84
2022/03/25 06:52:53;;;;;;;17.52;11.27;;;3.20;99.90;;;;;;4933415;29;20402;-84
2022/03/25 06:55:22;;;;;;;20.90;11.23;;;3.30;99.90;;;;;;4934646;29;20457;-85
2022/03/25 06:57:50;;;;;;;19.67;11.02;;;3.20;99.90;;;;;;4934498;29;20919;-85
2022/03/25 07:00:20;;;;;;;20.30;10.60;;;3.30;99.90;;;;;;4948712;29;20402;-84
2022/03/25 07:02:48;;;;;;;18.25;10.57;;;3.30;99.90;;;;;;4917624;29;20413;-84
2022/03/25 07:05:17;;;;;;;18.27;11.48;;;3.50;99.90;;;;;;4917672;29;20999;-85
2022/03/25 07:07:45;;;;;;;19.40;10.93;;;3.50;99.90;;;;;;4933252;29;20398;-85
2022/03/25 07:10:15;;;;;;;18.27;10.63;;;3.60;99.90;;;;;;4949050;29;20393;-85
2022/03/25 07:12:44;;;;;;;18.35;11.10;;;3.70;99.90;;;;;;4934409;29;20393;-84
2022/03/25 07:15:15;;;;;;;17.93;10.57;;;3.70;99.90;;;;;;4934394;29;20473;-85
2022/03/25 07:17:43;;;;;;;18.23;9.83;;;3.70;99.90;;;;;;4934210;29;20398;-85
2022/03/25 07:20:13;;;;;;;17.77;9.68;;;3.90;99.90;;;;;;4932946;29;20406;-85
2022/03/25 07:22:48;;;;;;;16.80;10.45;;;4.00;99.90;;;;;;4934201;29;20398;-85
2022/03/25 07:25:17;;;;;;;19.70;9.95;;;4.10;99.90;;;;;;4934244;29;20941;-84
2022/03/25 07:27:47;;;;;;;18.17;9.83;;;4.30;99.90;;;;;;4934483;29;20394;-84
2022/03/25 07:30:16;;;;;;;17.05;9.30;;;4.40;99.90;;;;;;4934111;29;20398;-83
2022/03/25 07:32:44;;;;;;;17.83;9.95;;;4.70;99.90;;;;;;4933091;29;20868;-85
2022/03/25 07:35:12;;;;;;;14.80;9.27;;;4.70;99.90;;;;;;4934137;29;20987;-85
2022/03/25 07:37:44;;;;;;;15.48;9.00;;;4.60;99.90;;;;;;4933072;29;20696;-85
2022/03/25 07:40:14;;;;;;;15.85;9.32;;;4.90;99.90;;;;;;4932950;29;20398;-85
2022/03/25 07:42:43;;;;;;;16.02;9.35;;;4.70;99.90;;;;;;4917458;29;20413;-85
2022/03/25 07:45:13;;;;;;;14.75;8.82;;;4.70;99.90;;;;;;4932803;29;20394;-84
2022/03/25 07:47:49;;;;;;;14.98;9.38;;;4.90;99.90;;;;;;4948835;29;20417;-84
2022/03/25 07:50:22;;;;;;;15.30;8.50;;;4.90;99.90;;;;;;4932990;29;20394;-85
2022/03/25 07:52:51;;;;;;;15.30;9.10;;;5.00;99.90;;;;;;4932646;29;20404;-86
2022/03/25 07:55:19;;;;;;;14.85;8.65;;;5.10;99.90;;;;;;4932740;29;20386;-84
2022/03/25 07:57:48;;;;;;;17.27;8.98;;;5.00;99.90;;;;;;4933826;29;20880;-85
2022/03/25 08:00:16;;;;;;;15.73;8.43;;;5.20;99.90;;;;;;4932729;29;21002;-85
2022/03/25 08:02:50;;;;;;;16.95;9.63;;;5.50;99.90;;;;;;4944217;29;20408;-85
2022/03/25 08:05:18;;;;;;;14.93;8.93;;;5.40;99.90;;;;;;4932647;29;20493;-85
2022/03/25 08:07:52;;;;;;;15.83;9.00;;;5.40;99.90;;;;;;4932660;29;20485;-84
2022/03/25 08:10:26;;;;;;;17.50;9.20;;;5.40;99.90;;;;;;4943646;29;20406;-85
2022/03/25 08:12:57;;;;;;;15.23;8.70;;;5.40;99.90;;;;;;4935584;29;20398;-85
2022/03/25 08:15:29;;;;;;;18.77;9.10;;;5.50;99.90;;;;;;4936025;29;20904;-85
2022/03/25 08:18:00;;;;;;;15.02;9.07;;;5.60;99.90;;;;;;4937147;29;20603;-85
2022/03/25 08:20:33;;;;;;;16.65;9.48;;;5.60;99.90;;;;;;4935962;29;20394;-85
2022/03/25 08:23:01;;;;;;;16.00;9.00;;;5.60;99.90;;;;;;4937071;29;20885;-85
2022/03/25 08:28:17;;;;;;;15.93;9.13;;;5.70;99.90;;;;;;4935200;29;20425;-84
2022/03/25 08:30:46;;;;;;;15.05;8.40;;;5.80;99.90;;;;;;4919798;29;20398;-85
2022/03/25 08:33:15;;;;;;;18.00;9.25;;;5.90;99.90;;;;;;4937132;29;20477;-84
2022/03/25 08:35:43;;;;;;;17.10;9.07;;;5.90;99.90;;;;;;4936897;29;20398;-84
2022/03/25 08:38:12;;;;;;;14.90;8.10;;;5.90;99.90;;;;;;4935002;29;20406;-84
2022/03/25 08:40:40;;;;;;;14.63;8.27;;;6.00;99.90;;;;;;4935342;29;20426;-85
2022/03/25 08:43:29;;;;;;;16.42;8.82;;;6.10;99.90;;;;;;4935430;29;20509;-85
2022/03/25 08:45:57;;;;;;;15.68;8.27;;;6.30;99.90;;;;;;4936494;29;20439;-85
2022/03/25 08:48:24;;;;;;;17.65;8.00;;;6.30;99.90;;;;;;4934113;29;20418;-83
2022/03/25 08:50:53;;;;;;;16.52;8.23;;;6.40;99.90;;;;;;4936474;29;20796;-85
2022/03/25 08:53:21;;;;;;;17.75;8.48;;;6.50;99.90;;;;;;4935445;29;20406;-85
2022/03/25 08:55:49;;;;;;;15.55;8.55;;;6.60;99.90;;;;;;4932541;29;20433;-85
2022/03/25 08:58:17;;;;;;;16.00;8.67;;;6.70;99.90;;;;;;4920736;29;20498;-84
2022/03/25 09:00:45;;;;;;;16.33;7.75;;;6.70;99.90;;;;;;4935477;29;20405;-83
2022/03/25 09:03:12;;;;;;;15.93;8.95;;;6.70;99.90;;;;;;4930497;29;20920;-83
2022/03/25 09:05:40;;;;;;;16.30;8.30;;;6.80;99.90;;;;;;4915814;29;20400;-84
2022/03/25 09:08:08;;;;;;;18.02;8.70;;;6.80;99.90;;;;;;4934734;29;20414;-83
2022/03/25 09:10:36;;;;;;;18.50;8.95;;;6.80;99.90;;;;;;4934663;29;20402;-83
2022/03/25 09:13:03;;;;;;;15.88;8.60;;;6.80;99.90;;;;;;4934965;29;20948;-83
2022/03/25 09:15:32;;;;;;;16.20;9.05;;;6.80;99.90;;;;;;4934877;29;20404;-83
2022/03/25 09:17:59;;;;;;;19.27;8.88;;;6.90;99.90;;;;;;4950784;29;20485;-84
2022/03/25 09:20:32;;;;;;;18.88;9.25;;;6.90;99.90;;;;;;4935557;29;20398;-85
2022/03/25 09:23:00;;;;;;;13.10;8.23;;;7.00;99.90;;;;;;4950510;28;20390;-85
2022/03/25 09:25:30;;;;;;;16.45;8.07;;;7.10;99.90;;;;;;4935832;29;20764;-83
2022/03/25 09:27:57;;;;;;;14.83;8.30;;;7.10;99.90;;;;;;4934965;29;20413;-84
2022/03/25 09:30:25;;;;;;;21.05;8.95;;;7.20;99.90;;;;;;4917664;29;20400;-83
2022/03/25 09:33:03;;;;;;;15.88;8.50;;;7.20;99.90;;;;;;4915677;29;20404;-83
2022/03/25 09:35:38;;;;;;;15.13;8.13;;;7.40;99.90;;;;;;4900136;29;20906;-84
2022/03/25 09:38:06;;;;;;;17.05;8.57;;;7.50;99.90;;;;;;4915471;29;20902;-83
2022/03/25 09:40:35;;;;;;;16.70;7.80;;;7.60;99.90;;;;;;4915251;29;20404;-83
2022/03/25 09:43:03;;;;;;;18.08;8.70;;;7.70;99.90;;;;;;4915333;29;20902;-85
2022/03/25 09:45:33;;;;;;;16.65;8.13;;;7.70;99.90;;;;;;4915365;29;20415;-83
2022/03/25 09:48:02;;;;;;;16.37;7.87;;;7.80;99.90;;;;;;4915222;29;20412;-82
2022/03/25 09:50:31;;;;;;;14.63;8.30;;;7.80;99.90;;;;;;4915242;29;20407;-83
2022/03/25 09:52:59;;;;;;;15.67;8.27;;;7.70;99.90;;;;;;4916516;29;20403;-83
2022/03/25 09:55:41;;;;;;;14.45;7.65;;;7.90;99.90;;;;;;4915520;29;20760;-83
2022/03/25 09:58:12;;;;;;;15.27;7.93;;;8.10;99.90;;;;;;4916426;29;20900;-85
2022/03/25 10:00:40;;;;;;;17.30;8.32;;;8.10;99.90;;;;;;4915029;29;20412;-83
2022/03/25 10:03:42;;;;;;;14.33;7.40;;;8.10;99.90;;;;;;4916339;29;20400;-84
2022/03/25 10:06:12;;;;;;;15.52;7.75;;;8.20;99.90;;;;;;4905982;29;20438;-82
2022/03/25 10:08:53;;;;;;;18.25;8.57;;;8.30;99.90;;;;;;4914837;29;20887;-84
2022/03/25 10:11:27;;;;;;;15.93;7.90;;;8.30;99.90;;;;;;4916049;29;20423;-84
2022/03/25 10:14:19;;;;;;;13.25;7.63;;;8.40;99.90;;;;;;4914826;29;20451;-83
2022/03/25 10:16:51;;;;;;;16.27;7.60;;;8.30;99.90;;;;;;4930568;29;20415;-85
2022/03/25 10:19:20;;;;;;;17.48;9.25;;;8.60;99.90;;;;;;4915915;29;20399;-83
2022/03/25 10:21:58;;;;;;;16.38;8.80;;;8.50;99.90;;;;;;4914747;29;20486;-83
2022/03/25 10:24:46;;;;;;;15.88;8.57;;;8.50;99.90;;;;;;4914837;29;21122;-85
2022/03/25 10:27:34;;;;;;;14.48;7.90;;;8.60;99.90;;;;;;4914637;29;20408;-85
2022/03/25 10:30:05;;;;;;;16.92;9.02;;;8.60;99.90;;;;;;4930326;29;20902;-84
2022/03/25 10:32:39;;;;;;;15.30;8.10;;;8.60;99.90;;;;;;4914485;29;20406;-85
2022/03/25 10:35:11;;;;;;;15.27;8.18;;;8.60;99.90;;;;;;4930079;29;20440;-85
2022/03/25 10:37:56;;;;;;;16.88;8.13;;;8.70;99.90;;;;;;4930260;29;20748;-85
2022/03/25 10:40:24;;;;;;;15.13;8.27;;;8.80;99.90;;;;;;4915732;29;20414;-84
2022/03/25 10:43:09;;;;;;;15.38;8.25;;;9.00;99.90;;;;;;4937647;29;20456;-85
2022/03/25 10:45:42;;;;;;;16.48;7.80;;;9.10;99.90;;;;;;4909287;29;20406;-82
2022/03/25 10:48:15;;;;;;;15.63;8.05;;;9.20;99.90;;;;;;4926967;29;20497;-85
2022/03/25 10:51:18;;;;;;;15.00;8.30;;;9.40;99.90;;;;;;4945080;29;20412;-84
2022/03/25 10:53:47;;;;;;;13.40;7.67;;;9.30;99.90;;;;;;4874317;29;20526;-84
2022/03/25 10:56:15;;;;;;;18.27;9.00;;;9.40;99.90;;;;;;4899666;29;20449;-85
2022/03/25 10:58:57;;;;;;;16.40;7.90;;;9.50;99.90;;;;;;4932942;29;20490;-84
2022/03/25 11:01:25;;;;;;;17.95;8.77;;;9.60;99.90;;;;;;4930472;29;20405;-85
2022/03/25 11:03:53;;;;;;;14.40;8.30;;;9.70;99.90;;;;;;4932455;29;20405;-85
2022/03/25 11:06:21;;;;;;;18.23;7.55;;;9.80;99.90;;;;;;4931760;29;20420;-84
2022/03/25 11:08:48;;;;;;;14.53;7.50;;;10.00;99.90;;;;;;4940490;29;20496;-85
2022/03/25 11:11:17;;;;;;;14.13;6.93;;;10.00;99.90;;;;;;4931835;29;20409;-85
2022/03/25 11:13:45;;;;;;;14.68;7.47;;;10.00;99.90;;;;;;4915584;29;20406;-85
2022/03/25 11:16:16;;;;;;;14.87;7.90;;;10.00;99.90;;;;;;4932493;29;20402;-85
2022/03/25 11:18:44;;;;;;;16.52;8.10;;;10.10;99.90;;;;;;4934192;29;20398;-85
2022/03/25 11:21:13;;;;;;;16.35;8.30;;;10.20;99.90;;;;;;4934169;29;20494;-85
2022/03/25 11:23:47;;;;;;;12.82;7.32;;;10.40;99.90;;;;;;4932793;29;20481;-86
2022/03/25 11:26:19;;;;;;;15.50;7.32;;;10.40;99.90;;;;;;4934382;29;20402;-86
2022/03/25 11:28:51;;;;;;;13.93;6.90;;;10.50;99.90;;;;;;4932822;29;20400;-84
2022/03/25 11:31:18;;;;;;;15.40;7.53;;;10.60;99.90;;;;;;4948840;29;20488;-85
2022/03/25 11:34:10;;;;;;;14.35;7.70;;;10.60;99.90;;;;;;4932733;29;20405;-85
2022/03/25 11:36:40;;;;;;;16.47;7.87;;;10.70;99.90;;;;;;4948576;29;20430;-85
2022/03/25 11:39:26;;;;;;;14.57;7.50;;;10.70;99.90;;;;;;4934320;29;20416;-85
2022/03/25 11:42:03;;;;;;;14.40;6.73;;;10.80;99.90;;;;;;4948620;29;20394;-85
2022/03/25 11:44:31;;;;;;;17.95;7.70;;;11.00;99.90;;;;;;4933907;29;20402;-85
2022/03/25 11:46:59;;;;;;;17.95;7.65;;;11.00;99.90;;;;;;4950435;28;20492;-84
2022/03/25 11:49:29;;;;;;;14.27;7.25;;;11.10;99.90;;;;;;4936443;29;20394;-84
2022/03/25 11:52:18;;;;;;;15.50;7.50;;;11.10;99.90;;;;;;4936515;29;20386;-85
2022/03/25 11:54:45;;;;;;;13.45;7.28;;;11.30;99.90;;;;;;4932512;29;20416;-85
2022/03/25 11:57:33;;;;;;;14.53;7.07;;;11.40;99.90;;;;;;4936192;29;20411;-85
2022/03/25 12:00:05;;;;;;;15.10;7.28;;;11.40;99.90;;;;;;4935952;29;20401;-85
2022/03/25 12:02:42;;;;;;;13.15;6.93;;;11.30;99.90;;;;;;4936261;29;20398;-85
2022/03/25 12:05:25;;;;;;;14.52;6.88;;;11.30;99.90;;;;;;4937351;29;20402;-85
2022/03/25 12:08:21;;;;;;;11.25;6.53;;;11.30;99.90;;;;;;4937234;29;20417;-85
2022/03/25 12:10:50;;;;;;;15.63;6.90;;;11.40;99.90;;;;;;4920128;29;20769;-85
2022/03/25 12:13:19;;;;;;;13.15;6.32;;;11.30;99.90;;;;;;4936003;29;20425;-85
2022/03/25 12:15:48;;;;;;;15.35;6.60;;;11.30;99.90;;;;;;4935804;29;20402;-85
2022/03/25 12:18:44;;;;;;;16.10;6.80;;;11.20;99.90;;;;;;4935745;29;20455;-85
2022/03/25 12:21:24;;;;;;;12.93;6.55;;;11.20;99.90;;;;;;4950628;29;20402;-85
2022/03/25 12:24:00;;;;;;;13.23;6.75;;;11.30;99.90;;;;;;4937028;29;20398;-85
2022/03/25 12:26:35;;;;;;;12.90;6.22;;;11.20;99.90;;;;;;4934058;29;20485;-85
2022/03/25 12:29:09;;;;;;;14.23;6.60;;;11.30;99.90;;;;;;4925131;29;20483;-85
2022/03/25 12:31:39;;;;;;;13.27;5.95;;;11.30;99.90;;;;;;4937312;29;20413;-85
2022/03/25 12:34:07;;;;;;;13.45;6.40;;;11.30;99.90;;;;;;4932819;29;20417;-85
2022/03/25 12:36:49;;;;;;;11.90;6.20;;;11.30;99.90;;;;;;4934141;29;20402;-85
2022/03/25 12:39:17;;;;;;;12.07;5.97;;;11.30;99.90;;;;;;4917057;29;20965;-85
2022/03/25 12:41:51;;;;;;;14.77;6.57;;;11.40;99.90;;;;;;4931090;29;20415;-85
2022/03/25 12:44:30;;;;;;;13.87;6.97;;;11.50;99.90;;;;;;4939950;29;20500;-85
2022/03/25 12:47:03;;;;;;;12.93;6.45;;;11.60;99.90;;;;;;4926779;29;20414;-84
2022/03/25 12:49:31;;;;;;;13.27;6.13;;;11.50;99.90;;;;;;4913416;29;20411;-85
2022/03/25 12:52:04;;;;;;;13.57;6.00;;;11.40;99.90;;;;;;4927244;29;20952;-85
2022/03/25 12:54:34;;;;;;;13.38;6.03;;;11.40;99.90;;;;;;4934026;29;20418;-85
2022/03/25 12:57:04;;;;;;;15.57;6.57;;;11.40;99.90;;;;;;4913060;29;20415;-86
2022/03/25 12:59:57;;;;;;;14.50;6.35;;;11.20;99.90;;;;;;4934029;29;20522;-85
2022/03/25 13:02:33;;;;;;;12.88;6.65;;;11.40;99.90;;;;;;4947490;29;20435;-85
2022/03/25 13:05:10;;;;;;;13.68;6.68;;;11.30;99.90;;;;;;4917362;29;20427;-84